Sant Hilari Sacalm





Hora UTC 22:35
Temperatura 7.6 ºC
Sòl 15 cm -12.1 ºC
Humitat 87.7 %
Pressió 1031.1 hPa
Pluja 0.0 mm
Velocitat vent 4.4 km/h
Direcció vent W
Radiació solar 0.1 W/m²

Dades diàries 2020-02-22



Hora UTC (hivern +1h; estiu +2h)
Temperatura (ºC) Humitat (%) Pressió (hPa) Velocitat vent (km/h) Precipitació (mm) Radiació solar (W/m²)
Hora UTC Aire Sòl 15 cm Humitat Pressió Vel. Dir. Vel. Max Dir. Intent. màx 5 min. Rad. Sol.
00:05 7.9 -14.5 72.6 1026.8 8.1 W 8.1 WNW 0.0 0.1
00:10 7.6 -14.4 73.6 1026.7 7.4 W 11.5 W 0.0 0.1
00:15 7.4 -14.4 74.6 1026.7 7.8 W 11.5 W 0.0 0.1
00:20 7.4 -14.5 74.9 1026.7 5.8 W 11.5 W 0.0 0.1
00:25 7.2 -14.1 75.5 1026.7 6.6 W 11.5 W 0.0 0.1
00:30 7.2 -14.5 75.7 1026.7 4.1 W 8.8 W 0.0 0.1
00:35 6.8 -14.3 76.4 1026.7 5.1 W 8.8 WNW 0.0 0.1
00:40 6.5 -14.6 78.2 1026.7 6.7 W 11.5 WNW 0.0 0.1
00:45 6.7 -14.6 77.5 1026.7 4.8 W 11.5 W 0.0 0.1
00:50 6.5 -14.7 77.7 1026.7 4.7 SW 8.8 WSW 0.0 0.1
00:55 6.2 -15.0 79.3 1026.7 4.2 WSW 8.8 W 0.0 0.1
01:00 5.9 -14.7 80.4 1026.7 5.4 SW 8.8 SW 0.0 0.1
01:05 5.8 -14.6 81.0 1026.7 5.0 SW 8.8 SW 0.0 0.1
01:10 6.0 -14.5 80.5 1026.7 3.7 WSW 6.1 WSW 0.0 0.1
01:15 5.9 -13.7 80.2 1026.8 3.1 SW 6.1 SW 0.0 0.1
01:20 6.1 -13.6 79.8 1026.8 4.6 WSW 8.8 WSW 0.0 0.1
01:25 6.2 -13.2 79.2 1026.7 4.5 WSW 8.8 W 0.0 0.1
01:30 5.9 -14.0 80.2 1026.7 4.3 WSW 8.8 W 0.0 0.1
01:35 6.3 -14.4 78.9 1026.6 5.3 W 8.8 W 0.0 0.1
01:40 6.5 -14.3 77.4 1026.6 6.2 W 8.8 W 0.0 0.1
01:45 6.3 -14.0 78.3 1026.6 7.2 W 11.5 WNW 0.0 0.1
01:50 6.3 -14.1 77.6 1026.6 6.6 W 8.8 WSW 0.0 0.1
01:55 6.3 -14.5 77.5 1026.5 5.3 W 8.8 W 0.0 0.1
02:00 6.3 -14.7 77.6 1026.4 4.3 W 8.8 W 0.0 0.1
02:05 5.9 -14.8 79.0 1026.4 5.4 W 8.8 W 0.0 0.1
02:10 5.9 -14.6 78.8 1026.4 5.2 W 8.8 W 0.0 0.1
02:15 5.9 -14.6 78.8 1026.5 3.8 W 8.8 W 0.0 0.1
02:20 5.9 -14.4 78.3 1026.4 5.4 WSW 8.8 W 0.0 0.1
02:25 5.8 -14.1 78.5 1026.4 6.1 WSW 11.5 W 0.0 0.1
02:30 5.8 -14.1 78.1 1026.3 6.2 W 11.5 WNW 0.0 0.1
02:35 6.0 -14.3 76.4 1026.2 7.2 W 11.5 W 0.0 0.1
02:40 6.0 -14.4 76.6 1026.2 6.4 W 8.8 WNW 0.0 0.1
02:45 5.9 -14.4 76.8 1026.2 6.1 W 8.8 W 0.0 0.1
02:50 5.9 -14.4 76.1 1026.2 5.0 W 8.8 WNW 0.0 0.1
02:55 5.7 -14.4 76.2 1026.2 3.1 W 6.1 W 0.0 0.1
03:00 5.7 -14.3 75.4 1026.2 5.4 WNW 8.8 WNW 0.0 0.1
03:05 5.9 -14.8 75.1 1026.3 3.9 WNW 8.8 W 0.0 0.1
03:10 6.0 -14.7 75.6 1026.3 4.2 WNW 11.5 WNW 0.0 0.1
03:15 5.7 -14.6 76.1 1026.3 6.2 W 8.8 WNW 0.0 0.1
03:20 5.7 -14.3 75.8 1026.3 6.2 WNW 11.5 WNW 0.0 0.1
03:25 5.9 -14.9 75.2 1026.4 5.6 WNW 8.8 WNW 0.0 0.1
03:30 6.7 -14.7 73.0 1026.4 5.3 NW 11.5 NW 0.0 0.1
03:35 8.0 -14.3 68.4 1026.4 5.0 NW 11.5 WNW 0.0 0.1
03:40 8.5 -14.4 66.3 1026.4 5.0 WNW 8.8 WNW 0.0 0.1
03:45 8.2 -14.4 67.7 1026.4 6.4 WNW 11.5 WNW 0.0 0.1
03:50 8.5 -14.2 67.3 1026.4 7.0 WNW 11.5 WNW 0.0 0.1
03:55 8.7 -14.0 66.4 1026.4 7.7 WNW 14.2 WNW 0.0 0.1
04:00 8.2 -14.3 66.9 1026.4 7.8 WNW 11.5 WNW 0.0 0.1
04:05 7.8 -13.9 68.7 1026.4 7.1 WNW 11.5 WNW 0.0 0.1
04:10 7.7 -14.2 69.3 1026.4 6.9 WNW 11.5 NW 0.0 0.1
04:15 8.0 -14.3 67.4 1026.4 6.8 WNW 11.5 WNW 0.0 0.1
04:20 8.2 -14.2 65.8 1026.5 5.6 NW 8.8 WNW 0.0 0.1
04:25 7.9 -14.4 66.5 1026.4 5.3 WNW 8.8 NW 0.0 0.1
04:30 7.1 -14.3 69.8 1026.4 5.4 WNW 8.8 WNW 0.0 0.1
04:35 6.3 -14.4 73.2 1026.5 4.9 WNW 8.8 WNW 0.0 0.1
04:40 6.2 -14.9 74.1 1026.6 4.1 WNW 8.8 WNW 0.0 0.1
04:45 6.1 -14.6 74.8 1026.6 3.9 WNW 8.8 WNW 0.0 0.1
04:50 6.1 -14.8 74.8 1026.7 4.7 WNW 8.8 WNW 0.0 0.1
04:55 5.8 -14.8 76.2 1026.7 4.7 WNW 8.8 WNW 0.0 0.1
05:00 6.0 -15.0 74.4 1026.8 4.1 NW 6.1 NW 0.0 0.1
05:05 6.9 -14.9 68.2 1026.9 5.8 NW 11.5 WNW 0.0 0.1
05:10 7.1 -14.9 67.5 1027.0 6.3 WNW 11.5 WNW 0.0 0.1
05:15 6.1 -15.1 73.6 1027.0 2.7 W 8.8 WNW 0.0 0.1
05:20 5.6 -14.5 76.3 1027.0 3.0 WSW 6.1 SSW 0.0 0.1
05:25 5.8 -14.6 74.9 1027.0 4.9 WSW 8.8 W 0.0 0.1
05:30 5.8 -14.7 75.0 1027.1 2.7 WSW 8.8 WSW 0.0 0.1
05:35 5.6 -14.7 76.0 1027.1 4.1 SW 6.1 SW 0.0 0.1
05:40 5.6 -14.5 75.9 1027.1 3.4 SW 6.1 WSW 0.0 0.2
05:45 5.5 -15.0 76.6 1027.1 3.5 WSW 6.1 SW 0.0 0.1
05:50 5.3 -14.4 77.3 1027.2 3.9 WSW 6.1 WSW 0.0 0.1
05:55 5.1 -14.8 77.5 1027.3 2.4 WSW 6.1 WSW 0.0 0.1
06:00 5.1 -14.4 77.3 1027.3 3.1 SSW 6.1 SSW 0.0 0.1
06:05 5.3 -14.5 75.7 1027.3 4.6 SW 8.8 SW 0.0 0.1
06:10 5.1 -14.8 76.3 1027.3 4.0 WSW 8.8 WSW 0.0 0.1
06:15 5.1 -14.9 76.2 1027.3 4.0 WSW 6.1 WSW 0.0 0.2
06:20 5.2 -14.7 75.5 1027.4 4.0 WSW 8.8 WSW 0.0 0.7
06:25 5.3 -14.6 75.4 1027.4 4.2 SW 6.1 WSW 0.0 2.4
06:30 5.3 -14.4 75.2 1027.5 4.1 SW 6.1 WSW 0.0 4.6
06:35 5.1 -14.7 75.7 1027.6 4.5 WSW 8.8 WSW 0.0 6.5
06:40 5.1 -14.7 75.2 1027.6 4.7 WSW 8.8 WSW 0.0 8.1
06:45 5.2 -14.7 74.5 1027.6 2.0 SW 6.1 SW 0.0 11.0
06:50 5.2 -15.0 74.0 1027.6 1.8 SSW 6.1 SSW 0.0 14.1
06:55 5.1 -14.7 73.9 1027.7 2.6 SSW 6.1 S 0.0 17.8
07:00 5.2 -14.9 73.5 1027.6 2.6 SW 6.1 SSW 0.0 21.5
07:05 5.3 -14.8 72.6 1027.7 1.1 SW 6.1 SW 0.0 28.9
07:10 5.5 -14.4 71.3 1027.8 2.2 SW 3.4 SSW 0.0 29.3
07:15 5.7 -14.7 70.1 1028.0 0.5 W 3.4 WSW 0.0 79.7
07:20 6.1 -14.6 68.3 1028.1 0.7 W 3.4 W 0.0 112.8
07:25 6.4 -14.3 67.7 1028.2 0.0 NNE 0.0 W 0.0 128.0
07:30 6.6 -14.2 67.4 1028.2 0.0 NNE 0.0 W 0.0 143.6
07:35 7.1 -13.9 66.2 1028.3 0.0 NNE 0.0 W 0.0 154.5
07:40 7.6 -13.9 64.7 1028.4 2.5 ENE 6.1 E 0.0 167.2
07:45 8.7 -13.7 62.4 1028.5 4.0 E 6.1 E 0.0 179.7
07:50 9.8 -13.3 57.8 1028.5 2.5 ESE 6.1 E 0.0 202.7
07:55 9.4 -13.6 58.1 1028.4 0.9 SSW 6.1 S 0.0 220.4
08:00 9.1 -13.4 59.1 1028.5 0.0 SW 3.4 SW 0.0 237.8
08:05 10.0 -13.0 58.0 1028.7 0.9 ESE 3.4 SE 0.0 253.4
08:10 10.5 -13.0 57.6 1028.8 1.7 SE 6.1 ESE 0.0 264.9
08:15 11.0 -13.0 57.6 1028.9 0.1 SE 3.4 SE 0.0 277.1
08:20 12.0 -13.1 60.2 1028.9 0.1 ESE 3.4 ESE 0.0 291.9
08:25 12.4 -12.9 59.5 1028.9 0.0 NNE 0.0 ESE 0.0 303.4
08:30 12.5 -12.7 60.7 1029.0 3.4 ESE 6.1 E 0.0 313.6
08:35 11.9 -12.2 64.4 1029.1 3.3 E 6.1 E 0.0 325.8
08:40 11.6 -12.6 66.0 1029.1 4.1 ESE 8.8 ESE 0.0 339.0
08:45 11.6 -12.6 65.7 1029.1 3.2 ESE 6.1 E 0.0 353.8
08:50 11.9 -12.4 63.1 1029.1 1.3 ESE 6.1 ESE 0.0 369.5
08:55 12.5 -11.8 59.3 1029.1 0.7 SSW 6.1 SSW 0.0 386.3
09:00 12.7 -12.3 56.7 1029.1 2.5 SSW 6.1 S 0.0 398.5
09:05 13.0 -11.8 55.2 1029.1 1.5 SW 6.1 WSW 0.0 408.4
09:10 13.2 -11.6 54.0 1029.2 1.1 SSW 6.1 SW 0.0 422.5
09:15 13.3 -11.9 53.6 1029.3 0.8 WSW 6.1 SW 0.0 437.2
09:20 13.8 -11.9 53.1 1029.3 0.3 SW 3.4 WSW 0.0 446.9
09:25 14.4 -11.5 52.9 1029.4 0.1 SE 3.4 SSE 0.0 453.3
09:30 14.4 -11.3 56.2 1029.5 3.9 E 8.8 E 0.0 466.8
09:35 13.4 0.0 60.6 1029.5 6.6 E 11.5 ESE 0.0 475.1
09:40 12.9 -11.8 62.9 1029.6 6.5 ENE 11.5 E 0.0 487.8
09:45 12.6 0.0 63.6 1029.6 6.9 ENE 11.5 ENE 0.0 496.6
09:50 12.6 0.0 62.3 1029.7 2.9 ESE 8.8 SE 0.0 508.2
09:55 12.8 0.0 61.5 1029.8 4.8 ENE 8.8 E 0.0 519.4
10:00 12.8 -11.9 62.6 1029.9 5.8 E 8.8 ENE 0.0 528.7
10:05 13.1 0.0 62.3 1029.9 2.5 ESE 6.1 ESE 0.0 527.1
10:10 13.5 -11.6 61.0 1029.8 2.4 SE 6.1 SSE 0.0 540.1
10:15 13.6 0.0 60.9 1029.8 3.9 SSE 11.5 SSW 0.0 544.0
10:20 13.7 -11.6 59.9 1029.9 4.4 ESE 8.8 ESE 0.0 553.3
10:25 13.3 0.0 61.4 1030.0 6.4 E 11.5 E 0.0 554.7
10:30 12.9 -11.5 63.0 1030.1 6.7 ENE 11.5 ENE 0.0 558.8
10:35 12.9 -11.4 63.8 1030.1 4.8 E 11.5 E 0.0 573.4
10:40 13.2 0.0 63.0 1030.2 5.2 ENE 11.5 E 0.0 583.1
10:45 13.3 0.0 62.9 1030.2 4.8 E 11.5 ESE 0.0 590.0
10:50 13.6 0.0 62.0 1030.3 4.6 ENE 11.5 ENE 0.0 600.6
10:55 13.7 -11.6 61.8 1030.3 6.0 ENE 11.5 ENE 0.0 602.2
11:00 13.6 0.0 62.2 1030.3 6.1 E 11.5 E 0.0 609.4
11:05 13.8 0.0 61.3 1030.3 5.9 E 11.5 ENE 0.0 614.0
11:10 13.8 0.0 61.6 1030.2 5.9 ENE 11.5 ENE 0.0 609.3
11:15 13.8 0.0 61.3 1030.3 7.7 ENE 14.2 ENE 0.0 602.7
11:20 13.8 -11.4 61.5 1030.2 7.7 ENE 14.2 E 0.0 616.8
11:25 13.7 0.0 62.4 1030.2 7.1 ENE 11.5 E 0.0 630.9
11:30 13.9 -11.3 62.9 1030.3 5.7 ENE 8.8 ENE 0.0 635.8
11:35 14.2 0.0 61.8 1030.2 6.2 ENE 11.5 ENE 0.0 637.3
11:40 14.3 -11.4 61.9 1030.3 5.7 ENE 8.8 NE 0.0 639.1
11:45 14.4 -11.0 62.1 1030.2 6.3 ESE 14.2 ESE 0.0 639.9
11:50 14.2 0.0 59.8 1030.1 6.2 E 11.5 ENE 0.0 643.3
11:55 14.4 -10.3 58.3 1030.0 5.9 E 11.5 E 0.0 639.6
12:00 14.9 0.0 55.8 1030.0 5.6 ESE 16.9 ENE 0.0 640.9
12:05 14.9 0.0 61.2 1029.9 5.8 S 14.2 SE 0.0 640.3
12:10 14.4 0.0 63.1 1029.9 5.2 S 11.5 S 0.0 640.0
12:15 15.0 -9.8 58.4 1029.9 3.3 SSE 8.8 SE 0.0 637.6
12:20 15.0 -10.0 55.7 1029.9 5.2 E 11.5 ENE 0.0 636.8
12:25 14.9 -9.5 52.7 1029.8 6.7 ENE 14.2 ESE 0.0 636.7
12:30 14.8 0.0 48.0 1029.8 7.0 E 11.5 ESE 0.0 634.7
12:35 14.8 -9.6 47.1 1029.7 6.4 ENE 11.5 ENE 0.0 629.4
12:40 15.1 0.0 52.5 1029.7 4.7 NE 11.5 ESE 0.0 624.4
12:45 15.0 -9.7 54.8 1029.6 5.4 E 8.8 E 0.0 622.6
12:50 15.1 -9.8 58.9 1029.6 4.0 SE 11.5 SW 0.0 620.2
12:55 15.3 -9.5 58.8 1029.5 6.1 S 11.5 S 0.0 619.9
13:00 15.3 0.0 59.1 1029.5 4.1 SSE 11.5 SE 0.0 570.1
13:05 15.2 0.0 58.4 1029.5 4.4 SE 8.8 SE 0.0 604.7
13:10 15.3 0.0 57.6 1029.5 4.3 ESE 11.5 ESE 0.0 604.8
13:15 15.5 -10.1 56.6 1029.5 5.1 ESE 14.2 E 0.0 596.6
13:20 15.0 -10.2 59.1 1029.5 6.5 E 11.5 E 0.0 590.9
13:25 14.9 -10.4 60.4 1029.4 6.9 E 14.2 ENE 0.0 584.2
13:30 14.9 0.0 60.7 1029.4 6.9 E 14.2 E 0.0 583.2
13:35 14.7 0.0 61.6 1029.4 8.0 E 14.2 ENE 0.0 576.9
13:40 14.7 0.0 62.1 1029.4 7.1 E 11.5 ENE 0.0 568.2
13:45 14.5 -10.8 62.8 1029.3 7.2 ENE 16.9 ENE 0.0 555.8
13:50 14.6 -10.3 61.6 1029.3 5.5 E 11.5 E 0.0 546.2
13:55 14.8 0.0 62.1 1029.4 5.2 NE 11.5 NNE 0.0 534.1
14:00 14.8 0.0 61.7 1029.4 5.8 E 11.5 E 0.0 514.4
14:05 14.6 -10.5 61.8 1029.3 7.9 E 14.2 E 0.0 496.2
14:10 14.6 -10.8 62.2 1029.3 6.4 E 11.5 ENE 0.0 492.5
14:15 14.5 -11.2 62.9 1029.2 6.0 E 11.5 E 0.0 474.7
14:20 14.7 -10.9 61.9 1029.2 4.8 ESE 11.5 E 0.0 451.1
14:25 14.8 -10.8 58.5 1029.2 4.8 SE 8.8 E 0.0 458.9
14:30 15.4 -10.5 55.2 1029.1 3.8 SE 8.8 SE 0.0 454.4
14:35 15.2 -10.6 53.7 1029.1 5.2 SSE 14.2 SSW 0.0 438.5
14:40 14.9 -10.8 54.1 1029.1 7.1 S 14.2 SSW 0.0 431.2
14:45 14.7 -9.5 61.3 1029.1 3.4 E 8.8 E 0.0 421.7
14:50 14.4 -9.0 63.8 1029.1 4.6 ESE 11.5 E 0.0 407.5
14:55 14.7 -8.4 56.8 1029.1 3.1 SSE 11.5 SSW 0.0 407.4
15:00 14.7 -9.1 52.0 1029.2 4.9 S 8.8 SSW 0.0 394.8
15:05 14.7 -8.3 54.3 1029.2 4.2 SE 11.5 ESE 0.0 377.4
15:10 14.7 -8.9 53.4 1029.1 3.9 S 11.5 SSW 0.0 363.9
15:15 14.6 -9.2 58.8 1029.2 3.8 ESE 11.5 SE 0.0 348.2
15:20 14.3 -9.4 60.5 1029.2 5.4 SE 8.8 E 0.0 334.0
15:25 14.2 -8.5 61.1 1029.2 4.6 ESE 8.8 ESE 0.0 316.5
15:30 13.9 -8.7 67.9 1029.2 4.5 E 8.8 ENE 0.0 292.3
15:35 13.7 -9.3 69.4 1029.4 4.7 E 8.8 ESE 0.0 278.5
15:40 13.6 -8.7 70.3 1029.3 5.1 E 11.5 E 0.0 263.3
15:45 13.8 -9.6 60.7 1029.2 6.2 S 14.2 S 0.0 245.0
15:50 13.8 -9.6 57.1 1029.2 9.3 SSW 16.9 SSW 0.0 231.0
15:55 13.6 -9.3 59.8 1029.2 8.5 S 16.9 SSW 0.0 222.3
16:00 13.6 -10.4 61.8 1029.2 6.0 S 11.5 SSE 0.0 197.8
16:05 13.5 -10.3 64.2 1029.2 7.1 SSW 14.2 SW 0.0 180.4
16:10 13.1 -10.3 68.5 1029.1 10.4 SSW 14.2 SSW 0.0 144.8
16:15 12.9 -10.8 71.5 1029.1 8.5 SSW 14.2 SSW 0.0 85.3
16:20 12.7 -10.3 74.0 1029.2 6.2 SSW 8.8 SSW 0.0 71.2
16:25 12.6 -9.6 75.1 1029.3 5.8 SSW 8.8 SSW 0.0 70.7
16:30 12.5 -7.9 75.7 1029.4 2.7 SSE 6.1 SSW 0.0 66.8
16:35 12.5 -7.0 75.6 1029.4 2.4 ESE 6.1 SE 0.0 56.4
16:40 12.3 -7.8 76.3 1029.5 2.8 ENE 6.1 ENE 0.0 50.1
16:45 11.9 -8.8 77.7 1029.6 2.4 ENE 6.1 ENE 0.0 46.1
16:50 11.7 -10.1 78.5 1029.6 3.4 ENE 6.1 NE 0.0 37.3
16:55 11.6 -11.5 79.0 1029.6 2.5 E 6.1 E 0.0 33.0
17:00 11.5 -12.3 79.5 1029.6 2.1 E 6.1 ENE 0.0 29.2
17:05 11.4 -12.5 80.1 1029.7 2.1 ENE 6.1 ENE 0.0 25.2
17:10 11.0 -12.5 81.9 1029.8 0.3 NE 3.4 NE 0.0 20.8
17:15 10.9 -12.9 82.6 1029.8 0.0 NNE 0.0 NE 0.0 16.0
17:20 10.8 -12.9 83.0 1029.8 0.0 NNE 0.0 NE 0.0 11.8
17:25 10.8 -12.0 83.1 1029.9 0.0 NNE 0.0 NE 0.0 7.7
17:30 10.8 -12.5 83.2 1029.9 3.5 WNW 6.1 WNW 0.0 4.7
17:35 10.8 -12.2 83.4 1029.9 4.5 WNW 6.1 WNW 0.0 2.9
17:40 10.8 -11.9 83.6 1029.9 3.8 WSW 6.1 W 0.0 2.1
17:45 10.7 -12.7 83.0 1029.8 4.4 WSW 8.8 W 0.0 1.9
17:50 10.6 -11.9 83.6 1029.9 4.5 WSW 8.8 W 0.0 0.9
17:55 10.3 -11.5 84.6 1029.9 5.8 W 8.8 W 0.0 0.2
18:00 10.2 -11.2 85.4 1030.0 5.1 W 8.8 WNW 0.0 0.1
18:05 10.3 -11.7 85.5 1030.0 0.6 WSW 6.1 WSW 0.0 0.1
18:10 10.4 -11.1 84.9 1030.1 1.2 SW 6.1 SW 0.0 0.1
18:15 10.1 -12.9 85.3 1030.2 0.6 WSW 6.1 WSW 0.0 0.1
18:20 9.9 -12.8 86.0 1030.2 2.4 SW 6.1 SW 0.0 0.1
18:25 9.7 -12.8 86.5 1030.3 4.2 W 6.1 W 0.0 0.1
18:30 9.5 -12.5 87.0 1030.3 1.8 SW 6.1 WSW 0.0 0.1
18:35 9.4 -12.0 87.3 1030.4 4.9 W 8.8 W 0.0 0.1
18:40 9.3 -12.3 87.4 1030.5 5.6 WSW 8.8 WSW 0.0 0.1
18:45 9.1 -12.4 88.0 1030.7 5.5 W 8.8 W 0.0 0.1
18:50 9.1 -12.6 88.6 1030.8 1.2 W 6.1 WNW 0.0 0.1
18:55 9.1 -12.5 88.6 1030.9 3.0 W 8.8 W 0.0 0.1
19:00 9.0 -12.7 88.2 1030.9 7.5 W 11.5 W 0.0 0.1
19:05 8.7 -13.1 89.0 1030.9 7.9 W 11.5 W 0.0 0.1
19:10 8.7 -12.8 89.4 1031.0 6.0 W 8.8 WNW 0.0 0.1
19:15 8.8 -13.0 88.9 1031.0 6.0 W 11.5 W 0.0 0.1
19:20 8.8 -11.6 89.1 1031.1 8.1 W 11.5 W 0.0 0.1
19:25 8.9 -12.5 88.8 1031.2 6.8 W 8.8 WNW 0.0 0.1
19:30 9.0 -12.7 87.8 1031.3 6.2 W 11.5 W 0.0 0.1
19:35 9.1 -12.7 86.7 1031.3 5.0 WNW 11.5 NW 0.0 0.1
19:40 9.1 -11.6 85.9 1031.3 2.6 WNW 8.8 WNW 0.0 0.1
19:45 8.9 -12.1 86.3 1031.2 3.9 W 8.8 WNW 0.0 0.1
19:50 8.5 -13.0 88.4 1031.2 6.4 WSW 8.8 SW 0.0 0.1
19:55 8.4 -12.6 89.6 1031.1 5.0 W 8.8 W 0.0 0.1
20:00 8.7 -12.8 88.3 1031.1 5.8 WSW 8.8 W 0.0 0.1
20:05 8.7 -13.0 88.1 1031.1 6.9 WSW 11.5 WSW 0.0 0.1
20:10 8.6 -12.6 88.3 1031.1 7.5 WSW 11.5 W 0.0 0.1
20:15 8.6 -12.6 88.2 1031.1 6.8 W 8.8 W 0.0 0.1
20:20 8.8 -13.1 86.9 1031.1 3.8 W 8.8 W 0.0 0.1
20:25 8.7 -13.0 86.7 1031.1 6.4 W 8.8 WSW 0.0 0.1
20:30 8.5 -12.7 87.8 1031.2 2.8 W 8.8 W 0.0 0.1
20:35 8.4 -12.7 87.5 1031.2 3.1 WSW 8.8 W 0.0 0.1
20:40 8.4 -12.5 87.5 1031.2 3.4 WSW 8.8 W 0.0 0.1
20:45 8.3 -12.8 87.3 1031.3 2.9 WSW 8.8 W 0.0 0.1
20:50 8.0 -12.7 88.5 1031.3 3.0 W 8.8 W 0.0 0.1
20:55 8.0 -11.8 88.9 1031.4 1.2 W 8.8 WNW 0.0 0.1
21:00 8.0 -11.6 88.7 1031.4 2.3 SW 6.1 SW 0.0 0.1
21:05 7.9 -12.4 88.6 1031.4 4.9 SW 8.8 SW 0.0 0.1
21:10 7.8 -12.8 89.8 1031.5 3.7 WSW 8.8 W 0.0 0.1
21:15 7.9 -13.0 89.3 1031.6 1.3 W 6.1 WSW 0.0 0.1
21:20 8.1 -13.1 88.3 1031.6 5.7 W 8.8 W 0.0 0.1
21:25 8.1 -11.9 87.4 1031.6 3.5 WSW 8.8 W 0.0 0.1
21:30 8.0 -12.2 88.3 1031.6 2.7 WSW 6.1 WSW 0.0 0.1
21:35 7.9 -12.2 88.2 1031.5 3.8 WSW 6.1 WSW 0.0 0.1
21:40 7.9 -12.3 88.3 1031.5 2.4 WSW 6.1 W 0.0 0.1
21:45 7.9 -12.3 87.8 1031.4 3.5 WSW 6.1 SW 0.0 0.1
21:50 8.0 -12.2 87.3 1031.4 5.2 WSW 8.8 WSW 0.0 0.1
21:55 7.8 -12.4 88.3 1031.4 5.0 WSW 8.8 W 0.0 0.1
22:00 7.8 -12.6 88.5 1031.3 7.1 WSW 11.5 W 0.0 0.1
22:05 7.8 -12.8 88.8 1031.3 5.5 W 8.8 WSW 0.0 0.1
22:10 7.7 -13.1 87.7 1031.3 2.7 WSW 6.1 WNW 0.0 0.1
22:15 7.9 -12.1 86.9 1031.2 5.6 WSW 8.8 W 0.0 0.1
22:20 7.7 -11.9 87.2 1031.2 6.5 WSW 8.8 WSW 0.0 0.2
22:25 7.5 -11.9 88.1 1031.2 5.3 W 11.5 W 0.0 0.1
22:30 7.6 -11.9 87.8 1031.1 6.0 W 11.5 W 0.0 0.1
22:35 7.6 -12.1 87.7 1031.1 4.4 W 8.8 WNW 0.0 0.1
Màxima 15.7 0.0 89.8 1031.6 10.4 SSW 16.9 SSW 0.0 643.3
Mínima 5.0 -15.1 47.1 1026.2
Total 0.0